createdAt,value
2022-11-18T00:00:47.748Z,973.25
2022-11-18T00:01:47.800Z,973.30
2022-11-18T00:02:47.748Z,973.30
2022-11-18T00:03:47.750Z,973.31
2022-11-18T00:04:47.708Z,973.31
2022-11-18T00:05:47.690Z,973.33
2022-11-18T00:06:47.747Z,973.31
2022-11-18T00:07:47.737Z,973.30
2022-11-18T00:08:47.668Z,973.32
2022-11-18T00:09:47.639Z,973.29
2022-11-18T00:10:47.614Z,973.34
2022-11-18T00:11:47.615Z,973.35
2022-11-18T00:12:47.619Z,973.34
2022-11-18T00:13:47.607Z,973.34
2022-11-18T00:14:47.597Z,973.31
2022-11-18T00:15:47.559Z,973.32
2022-11-18T00:16:47.550Z,973.35
2022-11-18T00:17:47.526Z,973.37
2022-11-18T00:18:47.548Z,973.35
2022-11-18T00:19:47.520Z,973.41
2022-11-18T00:20:47.495Z,973.42
2022-11-18T00:21:47.481Z,973.40
2022-11-18T00:22:47.458Z,973.40
2022-11-18T00:23:47.469Z,973.39
2022-11-18T00:24:47.429Z,973.40
2022-11-18T00:25:48.200Z,973.41
2022-11-18T00:26:47.405Z,973.44
2022-11-18T00:27:47.469Z,973.41
2022-11-18T00:28:47.416Z,973.41
2022-11-18T00:29:47.369Z,973.42
2022-11-18T00:30:47.346Z,973.45
2022-11-18T00:31:47.364Z,973.44
2022-11-18T00:32:47.325Z,973.45
2022-11-18T00:33:47.345Z,973.46
2022-11-18T00:34:47.294Z,973.47
2022-11-18T00:35:47.284Z,973.49
2022-11-18T00:36:47.264Z,973.49
2022-11-18T00:37:47.267Z,973.51
2022-11-18T00:38:47.285Z,973.54
2022-11-18T00:39:47.234Z,973.50
2022-11-18T00:40:47.214Z,973.49
2022-11-18T00:41:47.624Z,973.53
2022-11-18T00:42:47.196Z,973.53
2022-11-18T00:43:47.218Z,973.51
2022-11-18T00:44:47.165Z,973.54
2022-11-18T00:45:47.466Z,973.58
2022-11-18T00:46:47.214Z,973.56
2022-11-18T00:47:47.123Z,973.59
2022-11-18T00:48:47.144Z,973.57
2022-11-18T00:49:47.105Z,973.58
2022-11-18T00:50:47.095Z,973.59
2022-11-18T00:51:47.084Z,973.57
2022-11-18T00:52:47.071Z,973.57
2022-11-18T00:53:47.084Z,973.61
2022-11-18T00:54:47.034Z,973.61
2022-11-18T00:55:47.035Z,973.64
2022-11-18T00:56:47.085Z,973.65
2022-11-18T00:57:46.994Z,973.61
2022-11-18T00:58:47.013Z,973.64
2022-11-18T00:59:46.960Z,973.63
2022-11-18T01:00:47.135Z,973.65
2022-11-18T01:01:47.047Z,973.67
2022-11-18T01:02:47.056Z,973.69
2022-11-18T01:03:51.191Z,973.67
2022-11-18T01:04:46.915Z,973.66
2022-11-18T01:05:46.902Z,973.74
2022-11-18T01:06:46.874Z,973.69
2022-11-18T01:07:46.862Z,973.75
2022-11-18T01:08:46.884Z,973.78
2022-11-18T01:09:46.862Z,973.73
2022-11-18T01:10:46.824Z,973.75
2022-11-18T01:11:46.819Z,973.77
2022-11-18T01:12:51.500Z,973.81
2022-11-18T01:13:47.801Z,973.81
2022-11-18T01:14:46.797Z,973.78
2022-11-18T01:15:46.752Z,973.81
2022-11-18T01:16:46.765Z,973.79
2022-11-18T01:17:46.728Z,973.78
2022-11-18T01:18:46.805Z,973.76
2022-11-18T01:19:46.703Z,973.79
2022-11-18T01:20:46.692Z,973.79
2022-11-18T01:21:46.702Z,973.81
2022-11-18T01:22:46.683Z,973.79
2022-11-18T01:23:46.686Z,973.79
2022-11-18T01:24:46.654Z,973.85
2022-11-18T01:25:46.622Z,973.82
2022-11-18T01:26:46.614Z,973.84
2022-11-18T01:27:46.608Z,973.86
2022-11-18T01:28:46.660Z,973.87
2022-11-18T01:29:46.574Z,973.87
2022-11-18T01:30:46.571Z,973.88
2022-11-18T01:32:09.317Z,973.81
2022-11-18T01:32:47.532Z,973.90
2022-11-18T01:33:46.627Z,973.86
2022-11-18T01:34:46.533Z,973.85
2022-11-18T01:35:46.490Z,973.91
2022-11-18T01:36:46.649Z,973.91
2022-11-18T01:37:46.461Z,973.96
2022-11-18T01:38:46.487Z,973.92
2022-11-18T01:39:46.433Z,973.94
2022-11-18T01:40:46.427Z,973.93
2022-11-18T01:41:46.431Z,973.90
2022-11-18T01:42:46.413Z,973.91
2022-11-18T01:43:46.431Z,973.94
2022-11-18T01:44:47.191Z,973.95
2022-11-18T01:45:46.364Z,973.92
2022-11-18T01:46:46.365Z,973.84
2022-11-18T01:47:46.351Z,973.88
2022-11-18T01:48:46.359Z,973.90
2022-11-18T01:49:46.309Z,973.92
2022-11-18T01:50:46.288Z,973.88
2022-11-18T01:51:46.289Z,973.90
2022-11-18T01:52:50.306Z,973.91
2022-11-18T01:53:47.331Z,973.87
2022-11-18T01:54:46.323Z,973.81
2022-11-18T01:55:46.219Z,973.82
2022-11-18T01:56:46.214Z,973.80
2022-11-18T01:57:46.211Z,973.88
2022-11-18T01:58:46.436Z,973.90
2022-11-18T01:59:46.167Z,973.89
2022-11-18T02:00:46.169Z,973.97
2022-11-18T02:01:46.200Z,974.00
2022-11-18T02:02:46.137Z,974.04
2022-11-18T02:03:46.159Z,974.08
2022-11-18T02:04:46.118Z,974.13
2022-11-18T02:05:46.090Z,974.13
2022-11-18T02:06:46.086Z,974.16
2022-11-18T02:07:46.101Z,974.14
2022-11-18T02:08:46.088Z,974.11
2022-11-18T02:09:46.064Z,974.11
2022-11-18T02:10:46.056Z,974.18
2022-11-18T02:11:46.041Z,974.22
2022-11-18T02:12:45.996Z,974.22
2022-11-18T02:13:46.012Z,974.19
2022-11-18T02:14:46.019Z,974.21
2022-11-18T02:15:46.048Z,974.22
2022-11-18T02:16:45.967Z,974.20
2022-11-18T02:17:45.930Z,974.21
2022-11-18T02:18:45.959Z,974.16
2022-11-18T02:19:45.910Z,974.12
2022-11-18T02:20:45.919Z,974.15
2022-11-18T02:21:45.908Z,974.15
2022-11-18T02:22:45.901Z,974.18
2022-11-18T02:23:45.959Z,974.21
2022-11-18T02:24:45.905Z,974.23
2022-11-18T02:25:45.877Z,974.19
2022-11-18T02:26:45.815Z,974.25
2022-11-18T02:27:45.804Z,974.28
2022-11-18T02:28:46.735Z,974.21
2022-11-18T02:29:45.903Z,974.24
2022-11-18T02:30:45.758Z,974.24
2022-11-18T02:31:45.766Z,974.25
2022-11-18T02:32:45.746Z,974.21
2022-11-18T02:33:45.787Z,974.22
2022-11-18T02:34:45.705Z,974.25
2022-11-18T02:35:45.695Z,974.21
2022-11-18T02:36:45.804Z,974.21
2022-11-18T02:37:45.693Z,974.18
2022-11-18T02:38:45.793Z,974.18
2022-11-18T02:39:45.783Z,974.21
2022-11-18T02:40:45.636Z,974.19
2022-11-18T02:41:45.685Z,974.21
2022-11-18T02:42:45.609Z,974.20
2022-11-18T02:43:45.674Z,974.22
2022-11-18T02:44:45.595Z,974.21
2022-11-18T02:45:45.574Z,974.23
2022-11-18T02:46:45.578Z,974.24
2022-11-18T02:47:45.535Z,974.22
2022-11-18T02:48:45.564Z,974.25
2022-11-18T02:49:45.534Z,974.24
2022-11-18T02:50:45.494Z,974.27
2022-11-18T02:51:45.489Z,974.27
2022-11-18T02:52:45.464Z,974.36
2022-11-18T02:53:45.473Z,974.30
2022-11-18T02:54:45.505Z,974.29
2022-11-18T02:55:45.443Z,974.35
2022-11-18T02:56:45.411Z,974.40
2022-11-18T02:57:45.426Z,974.38
2022-11-18T02:58:45.397Z,974.35
2022-11-18T02:59:45.441Z,974.40
2022-11-18T03:00:45.375Z,974.38
2022-11-18T03:01:45.432Z,974.36
2022-11-18T03:02:45.332Z,974.40
2022-11-18T03:03:45.342Z,974.29
2022-11-18T03:04:45.377Z,974.27
2022-11-18T03:05:45.307Z,974.29
2022-11-18T03:06:45.282Z,974.29
2022-11-18T03:07:45.339Z,974.27
2022-11-18T03:08:45.260Z,974.25
2022-11-18T03:09:45.282Z,974.29
2022-11-18T03:10:45.233Z,974.33
2022-11-18T03:11:45.226Z,974.33
2022-11-18T03:12:45.202Z,974.35
2022-11-18T03:13:45.194Z,974.37
2022-11-18T03:14:45.214Z,974.48
2022-11-18T03:15:45.171Z,974.40
2022-11-18T03:16:45.179Z,974.52
2022-11-18T03:17:45.142Z,974.50
2022-11-18T03:18:45.146Z,974.46
2022-11-18T03:19:45.152Z,974.51
2022-11-18T03:20:45.099Z,974.56
2022-11-18T03:21:45.092Z,974.56
2022-11-18T03:22:45.071Z,974.56
2022-11-18T03:23:45.062Z,974.56
2022-11-18T03:24:45.071Z,974.58
2022-11-18T03:25:45.043Z,974.52
2022-11-18T03:26:45.031Z,974.49
2022-11-18T03:27:45.013Z,974.49
2022-11-18T03:28:45.000Z,974.46
2022-11-18T03:29:45.022Z,974.53
2022-11-18T03:30:44.969Z,974.52
2022-11-18T03:31:44.961Z,974.56
2022-11-18T03:32:44.943Z,974.57
2022-11-18T03:33:44.944Z,974.57
2022-11-18T03:34:44.975Z,974.63
2022-11-18T03:35:44.910Z,974.63
2022-11-18T03:36:47.738Z,974.69
2022-11-18T03:37:45.910Z,974.67
2022-11-18T03:38:44.871Z,974.71
2022-11-18T03:39:44.880Z,974.69
2022-11-18T03:40:44.840Z,974.71
2022-11-18T03:41:44.841Z,974.73
2022-11-18T03:42:44.830Z,974.72
2022-11-18T03:43:44.810Z,974.73
2022-11-18T03:44:49.597Z,974.73
2022-11-18T03:45:45.778Z,974.77
2022-11-18T03:46:44.773Z,974.75
2022-11-18T03:47:44.770Z,974.77
2022-11-18T03:48:44.752Z,974.76
2022-11-18T03:49:44.772Z,974.76
2022-11-18T03:50:44.710Z,974.80
2022-11-18T03:51:44.703Z,974.79
2022-11-18T03:52:44.693Z,974.83
2022-11-18T03:53:44.669Z,974.82
2022-11-18T03:54:44.691Z,974.82
2022-11-18T03:55:44.646Z,974.82
2022-11-18T03:56:44.649Z,974.79
2022-11-18T03:57:44.620Z,974.76
2022-11-18T03:58:44.598Z,974.80
2022-11-18T03:59:44.624Z,974.82
2022-11-18T04:00:44.596Z,974.79
2022-11-18T04:01:44.623Z,974.84
2022-11-18T04:02:44.551Z,974.83
2022-11-18T04:03:44.539Z,974.82
2022-11-18T04:04:44.567Z,974.83
2022-11-18T04:05:44.518Z,974.80
2022-11-18T04:06:44.497Z,974.84
2022-11-18T04:07:44.530Z,974.86
2022-11-18T04:08:44.486Z,974.82
2022-11-18T04:09:44.498Z,974.84
2022-11-18T04:10:44.447Z,974.81
2022-11-18T04:11:44.450Z,974.81
2022-11-18T04:12:44.419Z,974.79
2022-11-18T04:13:44.410Z,974.85
2022-11-18T04:14:44.446Z,974.83
2022-11-18T04:15:44.377Z,974.84
2022-11-18T04:16:44.380Z,974.83
2022-11-18T04:17:44.357Z,974.85
2022-11-18T04:18:44.336Z,974.84
2022-11-18T04:19:44.359Z,974.87
2022-11-18T04:20:44.337Z,974.90
2022-11-18T04:21:44.316Z,974.92
2022-11-18T04:22:44.295Z,974.92
2022-11-18T04:23:44.287Z,974.93
2022-11-18T04:24:44.287Z,974.92
2022-11-18T04:25:44.277Z,974.94
2022-11-18T04:26:44.237Z,974.92
2022-11-18T04:27:44.225Z,974.92
2022-11-18T04:28:44.239Z,974.96
2022-11-18T04:29:44.223Z,974.96
2022-11-18T04:30:44.198Z,974.99
2022-11-18T04:31:44.175Z,975.02
2022-11-18T04:32:44.162Z,974.99
2022-11-18T04:33:44.146Z,975.02
2022-11-18T04:34:44.164Z,975.00
2022-11-18T04:35:44.125Z,975.04
2022-11-18T04:36:44.109Z,975.03
2022-11-18T04:37:44.121Z,975.04
2022-11-18T04:38:44.075Z,975.06
2022-11-18T04:39:44.096Z,975.07
2022-11-18T04:40:44.057Z,975.08
2022-11-18T04:41:44.044Z,975.05
2022-11-18T04:42:44.034Z,975.06
2022-11-18T04:43:44.017Z,975.12
2022-11-18T04:44:44.067Z,975.11
2022-11-18T04:45:44.004Z,975.10
2022-11-18T04:46:43.974Z,975.10
2022-11-18T04:47:43.966Z,975.13
2022-11-18T04:48:43.947Z,975.09
2022-11-18T04:49:43.965Z,975.12
2022-11-18T04:50:43.936Z,975.16
2022-11-18T04:51:43.908Z,975.17
2022-11-18T04:52:43.893Z,975.14
2022-11-18T04:53:43.893Z,975.19
2022-11-18T04:54:43.894Z,975.21
2022-11-18T04:55:43.856Z,975.24
2022-11-18T04:56:48.787Z,975.21
2022-11-18T04:57:44.849Z,975.24
2022-11-18T04:58:43.823Z,975.30
2022-11-18T04:59:43.854Z,975.28
2022-11-18T05:00:43.795Z,975.30
2022-11-18T05:01:43.871Z,975.32
2022-11-18T05:02:43.842Z,975.33
2022-11-18T05:03:47.805Z,975.26
2022-11-18T05:04:44.794Z,975.32
2022-11-18T05:05:43.724Z,975.33
2022-11-18T05:06:43.722Z,975.32
2022-11-18T05:07:43.798Z,975.40
2022-11-18T05:08:43.693Z,975.32
2022-11-18T05:09:43.708Z,975.38
2022-11-18T05:10:43.663Z,975.36
2022-11-18T05:11:43.641Z,975.39
2022-11-18T05:12:43.632Z,975.37
2022-11-18T05:13:43.620Z,975.39
2022-11-18T05:14:48.338Z,975.39
2022-11-18T05:15:44.603Z,975.40
2022-11-18T05:16:43.581Z,975.45
2022-11-18T05:17:43.566Z,975.39
2022-11-18T05:18:44.063Z,975.47
2022-11-18T05:19:43.566Z,975.46
2022-11-18T05:20:43.545Z,975.53
2022-11-18T05:21:43.544Z,975.55
2022-11-18T05:22:43.502Z,975.56
2022-11-18T05:23:43.482Z,975.56
2022-11-18T05:24:43.531Z,975.54
2022-11-18T05:25:43.468Z,975.57
2022-11-18T05:26:43.462Z,975.58
2022-11-18T05:27:43.466Z,975.59
2022-11-18T05:28:43.433Z,975.57
2022-11-18T05:29:43.437Z,975.56
2022-11-18T05:30:43.419Z,975.53
2022-11-18T05:31:43.400Z,975.60
2022-11-18T05:32:43.375Z,975.60
2022-11-18T05:33:43.370Z,975.59
2022-11-18T05:34:43.383Z,975.58
2022-11-18T05:35:43.331Z,975.62
2022-11-18T05:36:43.330Z,975.63
2022-11-18T05:37:43.297Z,975.64
2022-11-18T05:38:43.385Z,975.64
2022-11-18T05:39:43.312Z,975.66
2022-11-18T05:40:43.285Z,975.62
2022-11-18T05:41:43.261Z,975.65
2022-11-18T05:42:43.257Z,975.68
2022-11-18T05:43:43.221Z,975.72
2022-11-18T05:44:43.257Z,975.73
2022-11-18T05:45:43.209Z,975.75
2022-11-18T05:46:43.203Z,975.73
2022-11-18T05:47:43.179Z,975.76
2022-11-18T05:48:43.181Z,975.82
2022-11-18T05:49:43.241Z,975.80
2022-11-18T05:50:43.158Z,975.78
2022-11-18T05:51:43.142Z,975.82
2022-11-18T05:52:43.176Z,975.76
2022-11-18T05:53:43.090Z,975.83
2022-11-18T05:54:43.119Z,975.81
2022-11-18T05:55:43.093Z,975.78
2022-11-18T05:56:43.059Z,975.86
2022-11-18T05:57:43.095Z,975.86
2022-11-18T05:58:43.029Z,975.82
2022-11-18T05:59:43.208Z,975.86
2022-11-18T06:00:43.000Z,975.80
2022-11-18T06:01:43.057Z,975.87
2022-11-18T06:02:43.046Z,975.85
2022-11-18T06:03:42.978Z,975.88
2022-11-18T06:04:42.957Z,975.87
2022-11-18T06:05:42.968Z,975.88
2022-11-18T06:06:42.949Z,975.88
2022-11-18T06:07:43.036Z,975.93
2022-11-18T06:08:42.929Z,975.91
2022-11-18T06:09:42.878Z,975.92
2022-11-18T06:10:42.898Z,975.97
2022-11-18T06:11:42.871Z,975.95
2022-11-18T06:12:42.848Z,975.99
2022-11-18T06:13:42.841Z,975.94
2022-11-18T06:14:42.928Z,976.03
2022-11-18T06:15:42.845Z,976.00
2022-11-18T06:16:42.809Z,975.99
2022-11-18T06:17:42.728Z,976.02
2022-11-18T06:18:42.783Z,976.01
2022-11-18T06:19:42.757Z,976.04
2022-11-18T06:20:42.838Z,976.06
2022-11-18T06:21:42.686Z,976.01
2022-11-18T06:22:46.517Z,976.08
2022-11-18T06:23:42.776Z,976.05
2022-11-18T06:24:42.698Z,976.10
2022-11-18T06:25:42.758Z,976.07
2022-11-18T06:26:42.610Z,976.10
2022-11-18T06:27:42.618Z,976.09
2022-11-18T06:28:42.648Z,976.12
2022-11-18T06:29:42.589Z,976.13
2022-11-18T06:30:42.593Z,976.18
2022-11-18T06:31:42.567Z,976.15
2022-11-18T06:32:42.564Z,976.16
2022-11-18T06:33:42.520Z,976.20
2022-11-18T06:34:42.509Z,976.17
2022-11-18T06:35:42.519Z,976.21
2022-11-18T06:36:43.086Z,976.21
2022-11-18T06:37:42.455Z,976.25
2022-11-18T06:38:42.453Z,976.21
2022-11-18T06:39:42.447Z,976.23
2022-11-18T06:40:42.479Z,976.28
2022-11-18T06:41:42.415Z,976.26
2022-11-18T06:42:42.403Z,976.30
2022-11-18T06:43:43.156Z,976.31
2022-11-18T06:44:42.416Z,976.31
2022-11-18T06:45:43.129Z,976.30
2022-11-18T06:46:42.348Z,976.34
2022-11-18T06:47:42.326Z,976.36
2022-11-18T06:48:42.335Z,976.33
2022-11-18T06:49:42.299Z,976.34
2022-11-18T06:50:42.337Z,976.31
2022-11-18T06:51:42.412Z,976.37
2022-11-18T06:52:42.263Z,976.35
2022-11-18T06:53:42.252Z,976.37
2022-11-18T06:54:42.237Z,976.35
2022-11-18T06:55:42.254Z,976.38
2022-11-18T06:56:42.207Z,976.41
2022-11-18T06:57:42.196Z,976.41
2022-11-18T06:58:42.175Z,976.41
2022-11-18T06:59:42.175Z,976.39
2022-11-18T07:00:42.258Z,976.38
2022-11-18T07:01:42.137Z,976.44
2022-11-18T07:02:42.147Z,976.38
2022-11-18T07:03:42.116Z,976.42
2022-11-18T07:04:42.106Z,976.43
2022-11-18T07:05:42.122Z,976.45
2022-11-18T07:06:42.094Z,976.42
2022-11-18T07:07:42.653Z,976.46
2022-11-18T07:08:42.055Z,976.49
2022-11-18T07:09:42.990Z,976.50
2022-11-18T07:10:42.054Z,976.46
2022-11-18T07:11:42.035Z,976.54
2022-11-18T07:12:42.017Z,976.52
2022-11-18T07:13:43.747Z,976.58
2022-11-18T07:14:42.766Z,976.63
2022-11-18T07:15:41.994Z,976.67
2022-11-18T07:16:41.945Z,976.67
2022-11-18T07:17:41.927Z,976.71
2022-11-18T07:18:41.933Z,976.70
2022-11-18T07:19:41.923Z,976.73
2022-11-18T07:20:41.923Z,976.74
2022-11-18T07:21:41.873Z,976.77
2022-11-18T07:22:41.874Z,976.80
2022-11-18T07:23:41.855Z,976.80
2022-11-18T07:24:41.843Z,976.76
2022-11-18T07:25:45.254Z,976.80
2022-11-18T07:26:41.825Z,976.79
2022-11-18T07:27:41.800Z,976.83
2022-11-18T07:28:41.792Z,976.90
2022-11-18T07:29:41.781Z,976.90
2022-11-18T07:30:41.791Z,976.86
2022-11-18T07:31:41.755Z,976.92
2022-11-18T07:32:41.753Z,976.91
2022-11-18T07:33:41.753Z,976.92
2022-11-18T07:34:41.740Z,976.95
2022-11-18T07:35:41.712Z,976.93
2022-11-18T07:36:41.682Z,976.91
2022-11-18T07:37:41.693Z,976.97
2022-11-18T07:38:41.894Z,977.00
2022-11-18T07:39:41.642Z,977.04
2022-11-18T07:40:41.661Z,977.02
2022-11-18T07:41:41.611Z,977.03
2022-11-18T07:42:41.602Z,977.04
2022-11-18T07:43:41.618Z,977.09
2022-11-18T07:44:41.602Z,977.13
2022-11-18T07:45:41.585Z,977.14
2022-11-18T07:46:41.559Z,977.11
2022-11-18T07:47:41.530Z,977.15
2022-11-18T07:48:41.529Z,977.12
2022-11-18T07:49:41.526Z,977.17
2022-11-18T07:50:46.891Z,977.17
2022-11-18T07:51:42.487Z,977.20
2022-11-18T07:52:41.511Z,977.20
2022-11-18T07:53:41.460Z,977.25
2022-11-18T07:54:41.450Z,977.20
2022-11-18T07:55:41.587Z,977.26
2022-11-18T07:56:41.447Z,977.28
2022-11-18T07:57:41.452Z,977.24
2022-11-18T07:58:41.419Z,977.24
2022-11-18T07:59:41.387Z,977.30
2022-11-18T08:00:41.400Z,977.35
2022-11-18T08:01:41.424Z,977.35
2022-11-18T08:02:41.350Z,977.35
2022-11-18T08:03:41.344Z,977.37
2022-11-18T08:04:41.433Z,977.37
2022-11-18T08:05:41.478Z,977.39
2022-11-18T08:06:41.280Z,977.37
2022-11-18T08:07:41.308Z,977.38
2022-11-18T08:08:42.203Z,977.39
2022-11-18T08:09:41.249Z,977.42
2022-11-18T08:10:41.281Z,977.42
2022-11-18T08:11:41.219Z,977.45
2022-11-18T08:12:41.213Z,977.43
2022-11-18T08:13:41.201Z,977.45
2022-11-18T08:14:41.185Z,977.40
2022-11-18T08:15:41.189Z,977.40
2022-11-18T08:16:41.158Z,977.42
2022-11-18T08:17:41.179Z,977.41
2022-11-18T08:18:41.127Z,977.40
2022-11-18T08:19:41.110Z,977.42
2022-11-18T08:20:41.159Z,977.44
2022-11-18T08:21:42.201Z,977.43
2022-11-18T08:22:41.281Z,977.41
2022-11-18T08:23:42.484Z,977.43
2022-11-18T08:24:41.085Z,977.42
2022-11-18T08:25:41.198Z,977.41
2022-11-18T08:26:41.068Z,977.40
2022-11-18T08:27:41.233Z,977.42
2022-11-18T08:28:41.240Z,977.42
2022-11-18T08:29:41.007Z,977.42
2022-11-18T08:30:41.009Z,977.44
2022-11-18T08:31:40.964Z,977.42
2022-11-18T08:32:40.947Z,977.47
2022-11-18T08:33:40.937Z,977.45
2022-11-18T08:34:40.926Z,977.49
2022-11-18T08:35:40.938Z,977.46
2022-11-18T08:36:40.890Z,977.50
2022-11-18T08:37:40.877Z,977.56
2022-11-18T08:38:40.901Z,977.53
2022-11-18T08:39:40.854Z,977.50
2022-11-18T08:40:40.884Z,977.57
2022-11-18T08:41:40.830Z,977.56
2022-11-18T08:42:40.817Z,977.56
2022-11-18T08:43:40.836Z,977.55
2022-11-18T08:44:40.813Z,977.58
2022-11-18T08:45:40.804Z,977.57
2022-11-18T08:46:40.799Z,977.58
2022-11-18T08:47:40.738Z,977.57
2022-11-18T08:48:40.746Z,977.56
2022-11-18T08:49:40.735Z,977.56
2022-11-18T08:50:40.747Z,977.60
2022-11-18T08:51:40.685Z,977.56
2022-11-18T08:52:40.717Z,977.60
2022-11-18T08:53:40.689Z,977.61
2022-11-18T08:54:40.684Z,977.62
2022-11-18T08:55:40.669Z,977.60
2022-11-18T08:56:40.634Z,977.61
2022-11-18T08:57:40.615Z,977.60
2022-11-18T08:58:40.604Z,977.61
2022-11-18T08:59:40.593Z,977.66
2022-11-18T09:00:40.607Z,977.64
2022-11-18T09:01:40.704Z,977.65
2022-11-18T09:02:40.671Z,977.61
2022-11-18T09:03:40.564Z,977.63
2022-11-18T09:04:40.534Z,977.66
2022-11-18T09:05:40.545Z,977.64
2022-11-18T09:06:40.523Z,977.68
2022-11-18T09:07:40.616Z,977.65
2022-11-18T09:08:41.078Z,977.69
2022-11-18T09:09:40.500Z,977.70
2022-11-18T09:10:40.664Z,977.71
2022-11-18T09:11:40.474Z,977.72
2022-11-18T09:12:40.443Z,977.68
2022-11-18T09:14:09.576Z,977.71
2022-11-18T09:15:41.420Z,977.72
2022-11-18T09:16:40.368Z,977.73
2022-11-18T09:17:40.386Z,977.72
2022-11-18T09:18:40.336Z,977.70
2022-11-18T09:19:47.283Z,977.68
2022-11-18T09:20:41.345Z,977.73
2022-11-18T09:21:41.077Z,977.74
2022-11-18T09:22:40.309Z,977.75
2022-11-18T09:23:40.281Z,977.76
2022-11-18T09:24:40.277Z,977.74
2022-11-18T09:25:40.255Z,977.78
2022-11-18T09:26:40.253Z,977.79
2022-11-18T09:27:40.233Z,977.80
2022-11-18T09:28:40.232Z,977.80
2022-11-18T09:29:40.202Z,977.77
2022-11-18T09:30:40.191Z,977.81
2022-11-18T09:31:40.217Z,977.83
2022-11-18T09:32:40.155Z,977.85
2022-11-18T09:33:40.257Z,977.91
2022-11-18T09:34:40.145Z,977.83
2022-11-18T09:35:40.125Z,977.90
2022-11-18T09:36:40.133Z,977.94
2022-11-18T09:37:40.095Z,977.94
2022-11-18T09:38:40.086Z,977.96
2022-11-18T09:39:40.073Z,978.00
2022-11-18T09:40:40.064Z,977.97
2022-11-18T09:41:40.072Z,978.04
2022-11-18T09:42:40.027Z,978.04
2022-11-18T09:43:40.025Z,978.04
2022-11-18T09:44:39.996Z,978.05
2022-11-18T09:45:40.004Z,978.04
2022-11-18T09:46:40.014Z,978.04
2022-11-18T09:47:39.985Z,978.13
2022-11-18T09:48:39.948Z,978.12
2022-11-18T09:49:39.933Z,978.09
2022-11-18T09:50:49.662Z,978.14
2022-11-18T09:51:40.942Z,978.15
2022-11-18T09:52:39.904Z,978.13
2022-11-18T09:53:39.882Z,978.19
2022-11-18T09:54:39.864Z,978.15
2022-11-18T09:55:39.861Z,978.19
2022-11-18T09:56:39.964Z,978.20
2022-11-18T09:57:39.833Z,978.18
2022-11-18T09:58:39.813Z,978.17
2022-11-18T09:59:39.804Z,978.19
2022-11-18T10:00:39.804Z,978.24
2022-11-18T10:01:39.857Z,978.26
2022-11-18T10:02:39.809Z,978.29
2022-11-18T10:03:39.761Z,978.29
2022-11-18T10:04:39.744Z,978.28
2022-11-18T10:05:39.741Z,978.30
2022-11-18T10:06:39.750Z,978.35
2022-11-18T10:07:39.764Z,978.30
2022-11-18T10:08:39.693Z,978.36
2022-11-18T10:09:39.714Z,978.34
2022-11-18T10:10:39.657Z,978.35
2022-11-18T10:11:41.756Z,978.34
2022-11-18T10:12:39.642Z,978.33
2022-11-18T10:13:39.631Z,978.39
2022-11-18T10:14:39.616Z,978.40
2022-11-18T10:15:39.732Z,978.43
2022-11-18T10:16:39.611Z,978.46
2022-11-18T10:17:39.574Z,978.42
2022-11-18T10:19:40.551Z,978.47
2022-11-18T10:20:39.530Z,978.49
2022-11-18T10:21:39.549Z,978.53
2022-11-18T10:22:39.502Z,978.52
2022-11-18T10:23:39.510Z,978.48
2022-11-18T10:24:39.492Z,978.54
2022-11-18T10:25:39.481Z,978.54
2022-11-18T10:26:39.480Z,978.55
2022-11-18T10:27:39.445Z,978.58
2022-11-18T10:28:39.420Z,978.57
2022-11-18T10:29:39.409Z,978.58
2022-11-18T10:30:39.401Z,978.59
2022-11-18T10:31:39.416Z,978.63
2022-11-18T10:32:39.382Z,978.64
2022-11-18T10:33:39.368Z,978.63
2022-11-18T10:34:39.355Z,978.63
2022-11-18T10:35:39.339Z,978.66
2022-11-18T10:36:39.355Z,978.71
2022-11-18T10:38:06.166Z,978.68
2022-11-18T10:38:41.579Z,978.67
2022-11-18T10:39:39.279Z,978.67
2022-11-18T10:40:39.269Z,978.66
2022-11-18T10:41:39.289Z,978.67
2022-11-18T10:42:39.268Z,978.68
2022-11-18T10:43:39.229Z,978.71
2022-11-18T10:44:39.221Z,978.71
2022-11-18T10:45:39.206Z,978.72
2022-11-18T10:46:39.292Z,978.70
2022-11-18T10:47:39.181Z,978.69
2022-11-18T10:48:39.163Z,978.69
2022-11-18T10:49:39.171Z,978.73
2022-11-18T10:50:39.141Z,978.74
2022-11-18T10:51:39.147Z,978.76
2022-11-18T10:52:39.116Z,978.76
2022-11-18T10:53:39.089Z,978.76
2022-11-18T10:54:39.078Z,978.76
2022-11-18T10:55:39.068Z,978.76
2022-11-18T10:56:39.078Z,978.73
2022-11-18T10:57:39.061Z,978.79
2022-11-18T10:58:39.028Z,978.75
2022-11-18T10:59:39.017Z,978.82
2022-11-18T11:00:39.011Z,978.81
2022-11-18T11:01:39.125Z,978.79
2022-11-18T11:02:38.984Z,978.83
2022-11-18T11:03:38.967Z,978.81
2022-11-18T11:04:39.036Z,978.82
2022-11-18T11:05:38.936Z,978.86
2022-11-18T11:06:38.947Z,978.85
2022-11-18T11:07:38.970Z,978.83
2022-11-18T11:08:38.888Z,978.86
2022-11-18T11:09:38.910Z,978.86
2022-11-18T11:10:38.857Z,978.88
2022-11-18T11:11:38.897Z,978.85
2022-11-18T11:12:38.847Z,978.86
2022-11-18T11:13:38.842Z,978.90
2022-11-18T11:14:38.817Z,978.90
2022-11-18T11:15:38.817Z,978.90
2022-11-18T11:16:38.834Z,978.92
2022-11-18T11:17:38.832Z,978.97
2022-11-18T11:18:38.757Z,978.98
2022-11-18T11:19:38.760Z,978.94
2022-11-18T11:20:38.898Z,978.98
2022-11-18T11:21:38.994Z,978.96
2022-11-18T11:22:38.816Z,979.01
2022-11-18T11:23:38.906Z,978.99
2022-11-18T11:24:38.702Z,979.04
2022-11-18T11:28:39.744Z,979.07
2022-11-18T11:29:38.626Z,979.14
2022-11-18T11:30:40.850Z,979.11
2022-11-18T11:31:39.625Z,979.10
2022-11-18T11:32:38.669Z,979.11
2022-11-18T11:33:38.643Z,979.11
2022-11-18T11:34:38.715Z,979.12
2022-11-18T11:35:38.546Z,979.14
2022-11-18T11:36:38.555Z,979.12
2022-11-18T11:37:39.997Z,979.12
2022-11-18T11:38:38.515Z,979.08
2022-11-18T11:39:38.494Z,979.12
2022-11-18T11:40:38.542Z,979.12
2022-11-18T11:41:38.657Z,979.12
2022-11-18T11:42:38.444Z,979.10
2022-11-18T11:43:38.436Z,979.08
2022-11-18T11:44:38.424Z,979.10
2022-11-18T11:45:38.406Z,979.07
2022-11-18T11:46:38.615Z,979.12
2022-11-18T11:47:38.429Z,979.12
2022-11-18T11:48:38.364Z,979.11
2022-11-18T11:49:38.357Z,979.15
2022-11-18T11:50:38.342Z,979.14
2022-11-18T11:51:38.354Z,979.16
2022-11-18T11:52:38.340Z,979.16
2022-11-18T11:53:38.569Z,979.16
2022-11-18T11:54:38.455Z,979.17
2022-11-18T11:55:38.344Z,979.19
2022-11-18T11:56:38.290Z,979.22
2022-11-18T11:57:38.491Z,979.22
2022-11-18T11:58:38.456Z,979.20
2022-11-18T11:59:38.253Z,979.22
2022-11-18T12:00:38.202Z,979.25
2022-11-18T12:01:38.227Z,979.28
2022-11-18T12:05:22.823Z,979.28
2022-11-18T12:06:22.933Z,979.25
2022-11-18T12:07:22.888Z,979.33
2022-11-18T12:08:22.894Z,979.31
2022-11-18T12:09:22.802Z,979.35
2022-11-18T12:10:22.742Z,979.36
2022-11-18T12:11:22.918Z,979.36
2022-11-18T12:12:22.844Z,979.38
2022-11-18T12:13:22.814Z,979.36
2022-11-18T12:14:22.687Z,979.38
2022-11-18T12:15:22.681Z,979.41
2022-11-18T12:16:22.707Z,979.37
2022-11-18T12:17:22.662Z,979.40
2022-11-18T12:18:22.638Z,979.38
2022-11-18T12:19:22.708Z,979.37
2022-11-18T12:20:22.822Z,979.38
2022-11-18T12:21:22.646Z,979.38
2022-11-18T12:22:22.584Z,979.41
2022-11-18T12:23:22.572Z,979.38
2022-11-18T12:24:22.553Z,979.38
2022-11-18T12:25:22.551Z,979.41
2022-11-18T12:26:22.613Z,979.47
2022-11-18T12:27:22.530Z,979.46
2022-11-18T12:28:22.518Z,979.45
2022-11-18T12:29:22.512Z,979.49
2022-11-18T12:30:22.485Z,979.51
2022-11-18T12:31:22.504Z,979.52
2022-11-18T12:32:22.449Z,979.53
2022-11-18T12:33:22.447Z,979.55
2022-11-18T12:34:22.421Z,979.58
2022-11-18T12:35:22.468Z,979.56
2022-11-18T12:36:22.699Z,979.59